Time;durP1;ratioP1;P1;durP2;ratioP2;P2;SDS_P1;SDS_P2;PMS_P1;PMS_P2;Temp;Humidity;BMP_temperature;BMP_pressure;BME280_temperature;BME280_humidity;BME280_pressure;Samples;Min_cycle;Max_cycle;Signal;HPM_P1;HPM_P2
2022/01/01 00:01:51;;;;;;;4.97;2.90;;;;;;;21.21;42.23;102284.81;7310052;19;131850;-61
2022/01/01 00:04:18;;;;;;;9.20;3.15;;;;;;;21.20;42.06;102291.47;7307595;19;129469;-61
2022/01/01 00:06:45;;;;;;;8.10;2.90;;;;;;;21.18;42.13;102294.44;7310479;19;129645;-61
2022/01/01 00:09:12;;;;;;;6.05;2.75;;;;;;;21.18;41.96;102299.19;7305433;19;132307;-61
2022/01/01 00:11:39;;;;;;;8.60;3.03;;;;;;;21.16;41.97;102301.34;7310543;19;132024;-61
2022/01/01 00:14:05;;;;;;;8.15;2.50;;;;;;;21.15;41.99;102296.84;7306052;19;133152;-61
2022/01/01 00:16:32;;;;;;;5.60;2.50;;;;;;;21.14;42.42;102307.16;7311268;19;129578;-62
2022/01/01 00:18:59;;;;;;;6.40;2.70;;;;;;;21.11;42.03;102299.25;7305259;19;131223;-62
2022/01/01 00:21:26;;;;;;;5.28;2.70;;;;;;;21.10;42.24;102297.53;7309709;19;131834;-62
2022/01/01 00:23:53;;;;;;;6.57;2.85;;;;;;;21.06;42.03;102301.84;7307905;19;131954;-62
2022/01/01 00:26:20;;;;;;;5.07;2.53;;;;;;;21.06;42.09;102296.28;7317091;19;129029;-62
2022/01/01 00:28:47;;;;;;;4.82;2.45;;;;;;;21.06;42.33;102307.44;7314294;19;132076;-62
2022/01/01 00:31:14;;;;;;;5.93;2.72;;;;;;;21.03;42.38;102291.22;7314236;19;131261;-62
2022/01/01 00:33:41;;;;;;;8.52;2.60;;;;;;;21.02;42.41;102292.28;7315154;19;129160;-63
2022/01/01 00:36:08;;;;;;;6.03;2.45;;;;;;;21.01;42.63;102287.81;7314551;19;129626;-61
2022/01/01 00:38:34;;;;;;;5.60;2.38;;;;;;;20.98;42.43;102280.78;7315457;19;131946;-62
2022/01/01 00:41:02;;;;;;;5.50;2.75;;;;;;;20.98;42.49;102286.34;7312611;19;131155;-61
2022/01/01 00:43:29;;;;;;;5.70;2.65;;;;;;;20.98;42.50;102279.91;7318738;19;129145;-62
2022/01/01 00:45:56;;;;;;;7.80;3.03;;;;;;;20.97;42.18;102275.41;7311418;19;130981;-62
2022/01/01 00:48:22;;;;;;;9.52;2.60;;;;;;;20.95;42.53;102272.88;7317332;19;131312;-62
2022/01/01 00:50:49;;;;;;;10.80;3.15;;;;;;;20.95;42.57;102283.13;7311180;19;131345;-62
2022/01/01 00:53:16;;;;;;;5.30;2.50;;;;;;;20.94;42.52;102287.00;7315358;19;129188;-62
2022/01/01 00:55:42;;;;;;;5.82;2.75;;;;;;;20.92;42.47;102284.47;7313769;19;129040;-62
2022/01/01 00:58:09;;;;;;;5.80;2.55;;;;;;;20.90;42.68;102286.63;7315113;19;131960;-61
2022/01/01 01:00:36;;;;;;;4.93;2.35;;;;;;;20.89;42.91;102291.34;7313888;19;131048;-62
2022/01/01 01:03:11;;;;;;;6.55;2.53;;;;;;;20.90;42.42;102287.47;7313864;19;129218;-63
2022/01/01 01:05:39;;;;;;;6.05;2.40;;;;;;;20.87;42.62;102285.16;7317172;19;129080;-62
2022/01/01 01:08:07;;;;;;;5.65;2.88;;;;;;;20.86;42.56;102277.88;7312419;19;131732;-62
2022/01/01 01:10:34;;;;;;;7.68;3.13;;;;;;;20.85;42.95;102281.75;7317173;19;131797;-62
2022/01/01 01:13:02;;;;;;;5.72;2.78;;;;;;;20.84;42.96;102281.97;7312564;19;128961;-61
2022/01/01 01:15:30;;;;;;;6.78;2.83;;;;;;;20.84;42.81;102284.75;7316096;19;129158;-61
2022/01/01 01:17:57;;;;;;;8.93;2.75;;;;;;;20.82;42.96;102279.41;7311467;19;131167;-62
2022/01/01 01:20:26;;;;;;;4.88;2.60;;;;;;;20.83;42.80;102286.69;7315874;19;131601;-61
2022/01/01 01:22:58;;;;;;;7.60;2.80;;;;;;;20.81;43.04;102293.56;7313419;19;129039;-62
2022/01/01 01:25:29;;;;;;;9.38;2.97;;;;;;;20.80;42.74;102284.34;7315383;19;128802;-62
2022/01/01 01:27:55;;;;;;;5.50;2.70;;;;;;;20.78;42.77;102286.53;7313069;19;131631;-61
2022/01/01 01:30:23;;;;;;;6.70;2.33;;;;;;;20.77;43.11;102298.72;7313209;19;131782;-61
2022/01/01 01:32:49;;;;;;;8.02;2.92;;;;;;;20.78;43.02;102299.56;7314336;19;129578;-62
2022/01/01 01:35:16;;;;;;;5.72;2.80;;;;;;;20.75;42.90;102296.16;7311064;19;128878;-61
2022/01/01 01:37:43;;;;;;;6.38;2.72;;;;;;;20.75;43.20;102300.84;7316447;19;131621;-62
2022/01/01 01:40:10;;;;;;;4.60;2.47;;;;;;;20.75;43.06;102306.41;7310613;19;132102;-62
2022/01/01 01:42:36;;;;;;;6.75;2.88;;;;;;;20.74;43.25;102299.97;7315186;19;129461;-62
2022/01/01 01:45:04;;;;;;;6.72;2.47;;;;;;;20.73;43.26;102297.44;7312185;19;129062;-62
2022/01/01 01:47:35;;;;;;;7.70;2.67;;;;;;;20.72;43.12;102309.63;7314840;19;131275;-62
2022/01/01 01:50:05;;;;;;;8.00;2.78;;;;;;;20.72;42.96;102301.28;7313696;19;131774;-63
2022/01/01 01:52:35;;;;;;;4.97;2.88;;;;;;;20.70;43.00;102307.09;7312228;19;128844;-62
2022/01/01 01:55:04;;;;;;;4.25;2.67;;;;;;;20.69;42.98;102313.72;7311738;19;129316;-62
2022/01/01 01:57:34;;;;;;;4.78;2.45;;;;;;;20.70;42.94;102306.22;7309133;19;131080;-62
2022/01/01 02:00:03;;;;;;;5.38;2.33;;;;;;;20.68;42.96;102313.94;7313062;19;134789;-62
2022/01/01 02:02:29;;;;;;;6.63;2.60;;;;;;;20.67;43.37;102306.72;7312029;19;129589;-62
2022/01/01 02:04:56;;;;;;;5.15;2.58;;;;;;;20.67;43.03;102312.25;7309310;19;131496;-62
2022/01/01 02:07:24;;;;;;;3.95;2.28;;;;;;;20.66;43.26;102307.78;7313079;19;131768;-62
2022/01/01 02:09:50;;;;;;;5.15;2.70;;;;;;;20.66;42.98;102302.22;7312773;19;131120;-62
2022/01/01 02:12:17;;;;;;;4.93;2.45;;;;;;;20.64;42.93;102304.38;7315479;19;128887;-62
2022/01/01 02:17:25;;;;;;;5.15;2.25;;;;;;;20.62;43.47;102303.75;7315407;19;131190;-61
2022/01/01 02:20:00;;;;;;;5.35;2.95;;;;;;;20.60;43.34;102299.25;7312573;19;131149;-61
2022/01/01 02:22:40;;;;;;;5.40;2.33;;;;;;;20.60;43.30;102302.03;7314645;19;128818;-62
2022/01/01 02:25:07;;;;;;;5.03;2.78;;;;;;;20.59;43.15;102310.63;7311313;19;129037;-62
2022/01/01 02:27:36;;;;;;;5.78;2.78;;;;;;;20.59;43.10;102311.44;7313047;19;131478;-61
2022/01/01 02:30:08;;;;;;;6.57;2.90;;;;;;;20.58;43.23;102306.13;7315439;19;131741;-62
2022/01/01 02:32:35;;;;;;;6.40;2.63;;;;;;;20.56;43.73;102308.28;7310392;19;129552;-62
2022/01/01 02:35:04;;;;;;;5.10;2.78;;;;;;;20.55;43.29;102298.22;7315125;19;128877;-62
2022/01/01 02:37:31;;;;;;;7.40;2.78;;;;;;;20.54;43.47;102294.63;7311185;19;131309;-62
2022/01/01 02:39:58;;;;;;;4.47;2.40;;;;;;;20.54;43.26;102293.75;7315279;19;131661;-62
2022/01/01 02:42:25;;;;;;;6.88;2.60;;;;;;;20.54;43.51;102293.75;7311037;19;129086;-62
2022/01/01 02:44:53;;;;;;;6.45;2.53;;;;;;;20.52;43.48;102293.97;7314408;19;128920;-63
2022/01/01 02:47:21;;;;;;;5.53;2.53;;;;;;;20.52;43.54;102299.53;7310441;19;132856;-62
2022/01/01 02:49:48;;;;;;;4.22;2.50;;;;;;;20.52;43.51;102287.56;7314306;19;131291;-61
2022/01/01 02:52:14;;;;;;;4.53;2.55;;;;;;;20.51;43.49;102281.16;7311075;19;128862;-62
2022/01/01 02:54:41;;;;;;;5.03;2.60;;;;;;;20.50;43.54;102276.66;7312875;19;128967;-62
2022/01/01 02:57:08;;;;;;;5.90;2.75;;;;;;;20.50;43.79;102278.59;7310745;19;131256;-62
2022/01/01 02:59:34;;;;;;;6.88;3.15;;;;;;;20.48;43.55;102273.25;7311332;19;131112;-61
2022/01/01 03:02:01;;;;;;;4.22;2.38;;;;;;;20.48;43.30;102275.22;7314063;19;129123;-61
2022/01/01 03:04:28;;;;;;;4.30;2.60;;;;;;;20.49;43.56;102279.69;7309425;19;128985;-62
2022/01/01 03:06:56;;;;;;;4.88;2.75;;;;;;;20.47;43.44;102266.00;7307631;19;131127;-62
2022/01/01 03:09:24;;;;;;;13.80;3.00;;;;;;;20.47;43.94;102276.28;7303598;19;131078;-61
2022/01/01 03:11:52;;;;;;;8.13;2.92;;;;;;;20.46;43.59;102264.28;7307949;19;130631;-62
2022/01/01 03:14:18;;;;;;;9.13;2.70;;;;;;;20.45;43.81;102270.94;7305016;19;131461;-61
2022/01/01 03:16:45;;;;;;;6.75;3.13;;;;;;;20.45;44.01;102268.16;7312332;19;131966;-64
2022/01/01 03:19:13;;;;;;;7.75;3.20;;;;;;;20.46;43.87;102278.19;7305792;19;130924;-61
2022/01/01 03:21:40;;;;;;;12.55;3.60;;;;;;;20.46;43.88;102283.75;7310151;19;129608;-62
2022/01/01 03:24:08;;;;;;;12.93;3.40;;;;;;;20.48;43.91;102284.38;7308930;19;130214;-63
2022/01/01 03:26:35;;;;;;;10.23;4.00;;;;;;;20.49;44.13;102291.66;7308712;19;131322;-62
2022/01/01 03:29:02;;;;;;;13.55;3.10;;;;;;;20.47;44.21;102296.56;7304632;19;131157;-63
2022/01/01 03:31:29;;;;;;;8.70;3.60;;;;;;;20.45;44.00;102284.81;7310054;19;130028;-62
2022/01/01 03:33:58;;;;;;;8.20;3.58;;;;;;;20.45;43.51;102293.16;7309254;19;130380;-63
2022/01/01 03:36:25;;;;;;;11.13;3.47;;;;;;;20.45;43.83;102295.94;7307735;19;132330;-62
2022/01/01 03:38:53;;;;;;;15.40;4.05;;;;;;;20.44;43.90;102294.25;7311087;19;131179;-62
2022/01/01 03:41:20;;;;;;;19.42;4.03;;;;;;;20.45;43.64;102296.81;7306901;19;129706;-62
2022/01/01 03:43:49;;;;;;;11.60;3.40;;;;;;;20.44;43.73;102291.47;7310009;19;133113;-62
2022/01/01 03:46:16;;;;;;;7.40;3.03;;;;;;;20.43;43.89;102307.31;7306185;19;131917;-62
2022/01/01 03:48:43;;;;;;;7.07;3.42;;;;;;;20.43;43.96;102295.34;7312641;19;131390;-62
2022/01/01 03:51:10;;;;;;;8.70;3.15;;;;;;;20.41;43.44;102283.59;7308711;19;130038;-62
2022/01/01 03:53:37;;;;;;;7.55;3.30;;;;;;;20.41;43.53;102294.72;7311004;19;130603;-62
2022/01/01 03:56:04;;;;;;;10.75;3.45;;;;;;;20.40;43.96;102281.88;7308786;19;131183;-62
2022/01/01 03:58:30;;;;;;;7.85;2.83;;;;;;;20.40;43.93;102279.13;7309668;19;131184;-62
2022/01/01 04:00:57;;;;;;;9.38;3.35;;;;;;;20.38;43.88;102276.53;7313905;19;130826;-62
2022/01/01 04:03:24;;;;;;;6.13;3.30;;;;;;;20.38;43.46;102279.31;7315434;19;129153;-62
2022/01/01 04:05:51;;;;;;;10.10;3.33;;;;;;;20.38;43.94;102284.03;7317741;19;132022;-62
2022/01/01 04:08:18;;;;;;;9.82;3.45;;;;;;;20.36;43.88;102275.06;7303787;19;134592;-62
2022/01/01 04:10:44;;;;;;;8.48;3.08;;;;;;;20.37;43.66;102276.78;7314632;19;129044;-63
2022/01/01 04:13:11;;;;;;;9.07;3.25;;;;;;;20.35;43.46;102279.78;7312992;19;129564;-62
2022/01/01 04:15:41;;;;;;;5.97;3.05;;;;;;;20.35;43.58;102274.22;7317791;19;131285;-62
2022/01/01 04:18:12;;;;;;;7.53;2.80;;;;;;;20.35;43.92;102273.38;7312667;19;131798;-61
2022/01/01 04:20:44;;;;;;;10.95;3.20;;;;;;;20.33;43.49;102279.16;7320485;19;129511;-62
2022/01/01 04:23:11;;;;;;;7.35;3.03;;;;;;;20.33;43.87;102269.94;7313812;19;129495;-63
2022/01/01 04:25:38;;;;;;;7.45;3.05;;;;;;;20.32;43.48;102269.13;7317867;19;131157;-62
2022/01/01 04:28:05;;;;;;;10.43;3.03;;;;;;;20.32;43.69;102266.34;7313286;19;131881;-62
2022/01/01 04:30:32;;;;;;;6.72;2.97;;;;;;;20.31;43.54;102272.97;7316612;19;129030;-62
2022/01/01 04:32:59;;;;;;;4.25;2.70;;;;;;;20.31;43.43;102278.53;7311617;19;132421;-63
2022/01/01 04:35:26;;;;;;;9.85;3.60;;;;;;;20.31;43.75;102277.69;7316016;19;131961;-62
2022/01/01 04:37:53;;;;;;;9.05;3.80;;;;;;;20.29;43.76;102277.91;7316768;19;132857;-62
2022/01/01 04:40:20;;;;;;;7.68;2.88;;;;;;;20.29;43.49;102286.22;7314106;19;129160;-62
2022/01/01 04:42:47;;;;;;;4.43;2.85;;;;;;;20.29;43.46;102284.31;7316712;19;129095;-62
2022/01/01 04:45:13;;;;;;;6.00;3.20;;;;;;;20.28;43.75;102292.88;7314294;19;131194;-62
2022/01/01 04:47:40;;;;;;;5.28;2.95;;;;;;;20.27;43.67;102300.38;7316609;19;131804;-62
2022/01/01 04:50:07;;;;;;;8.65;3.03;;;;;;;20.27;43.45;102297.59;7310874;19;129142;-62
2022/01/01 04:52:34;;;;;;;5.30;3.35;;;;;;;20.26;43.44;102295.00;7318447;19;130183;-62
2022/01/01 04:55:01;;;;;;;6.65;3.30;;;;;;;20.28;43.68;102296.50;7312467;19;131129;-62
2022/01/01 04:57:30;;;;;;;9.73;3.33;;;;;;;20.26;43.82;102287.53;7317286;19;131447;-62
2022/01/01 04:59:58;;;;;;;8.40;2.90;;;;;;;20.24;43.87;102289.69;7313339;19;128959;-62
2022/01/01 05:02:26;;;;;;;10.77;3.25;;;;;;;20.24;43.90;102300.81;7317149;19;129104;-62
2022/01/01 05:04:54;;;;;;;5.60;2.90;;;;;;;20.23;43.51;102296.31;7313873;19;134535;-62
2022/01/01 05:07:21;;;;;;;5.88;2.95;;;;;;;20.22;43.96;102308.50;7314128;19;131079;-62
2022/01/01 05:09:48;;;;;;;6.03;2.85;;;;;;;20.22;43.46;102302.94;7314109;19;132518;-62
2022/01/01 05:12:15;;;;;;;5.93;2.88;;;;;;;20.22;43.71;102305.72;7313339;19;129000;-62
2022/01/01 05:14:42;;;;;;;8.25;3.33;;;;;;;20.21;43.93;102306.81;7317117;19;131658;-62
2022/01/01 05:17:09;;;;;;;5.13;3.03;;;;;;;20.21;43.88;102306.81;7312919;19;131224;-62
2022/01/01 05:19:35;;;;;;;7.03;3.20;;;;;;;20.21;43.94;102305.97;7316783;19;129086;-62
2022/01/01 05:22:02;;;;;;;7.57;2.75;;;;;;;20.20;43.71;102316.22;7312877;19;130963;-62
2022/01/01 05:24:29;;;;;;;6.15;2.78;;;;;;;20.20;43.50;102309.81;7315586;19;133072;-62
2022/01/01 05:26:58;;;;;;;3.90;2.75;;;;;;;20.19;43.84;102314.50;7310876;19;131234;-62
2022/01/01 05:29:24;;;;;;;5.88;2.88;;;;;;;20.19;43.82;102308.94;7315484;19;129217;-62
2022/01/01 05:31:51;;;;;;;5.60;3.08;;;;;;;20.18;43.70;102312.84;7313142;19;130911;-62
2022/01/01 05:34:18;;;;;;;4.53;2.47;;;;;;;20.17;43.69;102311.13;7314920;19;131118;-62
2022/01/01 05:36:44;;;;;;;3.58;2.28;;;;;;;20.18;43.51;102321.16;7313721;19;131503;-62
2022/01/01 05:39:11;;;;;;;6.63;2.63;;;;;;;20.17;43.45;102319.47;7312105;19;128762;-62
2022/01/01 05:41:38;;;;;;;7.25;2.80;;;;;;;20.17;43.88;102311.13;7313144;19;130747;-62
2022/01/01 05:44:05;;;;;;;6.68;2.92;;;;;;;20.17;43.97;102313.91;7310760;19;131167;-62
2022/01/01 05:46:32;;;;;;;4.90;2.60;;;;;;;20.16;43.89;102309.41;7315504;19;131146;-62
2022/01/01 05:48:59;;;;;;;4.88;2.88;;;;;;;20.15;43.65;102307.72;7312573;19;130679;-62
2022/01/01 05:51:26;;;;;;;4.40;3.10;;;;;;;20.15;43.42;102307.72;7315044;19;128860;-62
2022/01/01 05:53:53;;;;;;;7.70;3.03;;;;;;;20.14;43.49;102300.44;7312222;19;131308;-62
2022/01/01 05:56:19;;;;;;;3.78;2.47;;;;;;;20.13;43.63;102305.13;7314720;19;132598;-62
2022/01/01 05:58:46;;;;;;;5.05;2.78;;;;;;;20.14;43.69;102306.00;7309510;19;129279;-62
2022/01/01 06:01:13;;;;;;;5.32;2.95;;;;;;;20.13;43.99;102293.19;7314956;19;129062;-62
2022/01/01 06:03:40;;;;;;;6.75;3.00;;;;;;;20.12;43.77;102294.25;7311326;19;131532;-62
2022/01/01 06:06:06;;;;;;;4.93;2.80;;;;;;;20.12;43.71;102285.91;7313904;19;132203;-62
2022/01/01 06:08:53;;;;;;;5.30;2.50;;;;;;;20.11;43.66;102284.22;7311747;19;129575;-62
2022/01/01 06:11:20;;;;;;;6.10;3.08;;;;;;;20.11;43.65;102295.34;7314117;19;130946;-62
2022/01/01 06:13:46;;;;;;;5.03;2.42;;;;;;;20.11;43.62;102300.88;7314848;19;131239;-62
2022/01/01 06:16:13;;;;;;;4.95;2.72;;;;;;;20.09;43.94;102301.13;7313015;19;133387;-62
2022/01/01 06:18:40;;;;;;;4.15;2.53;;;;;;;20.08;43.41;102298.53;7313957;19;128901;-62
2022/01/01 06:21:07;;;;;;;4.78;2.30;;;;;;;20.09;43.49;102291.91;7311488;19;129517;-62
2022/01/01 06:23:37;;;;;;;3.63;2.53;;;;;;;20.08;43.80;102296.63;7312218;19;132083;-62
2022/01/01 06:26:04;;;;;;;4.55;2.35;;;;;;;20.08;43.40;102301.31;7309363;19;131853;-62
2022/01/01 06:28:31;;;;;;;4.38;2.40;;;;;;;20.07;43.54;102299.63;7315329;19;128973;-62
2022/01/01 06:30:58;;;;;;;4.82;2.33;;;;;;;20.07;43.46;102307.94;7311871;19;130970;-62
2022/01/01 06:33:25;;;;;;;3.15;2.47;;;;;;;20.06;43.66;102296.00;7314403;19;133432;-62
2022/01/01 06:35:54;;;;;;;4.38;2.60;;;;;;;20.06;43.67;102284.06;7311148;19;131118;-62
2022/01/01 06:38:21;;;;;;;4.38;2.65;;;;;;;20.06;43.46;102275.72;7310842;19;128916;-62
2022/01/01 06:40:48;;;;;;;4.07;2.72;;;;;;;20.05;43.84;102279.56;7310102;19;129377;-62
2022/01/01 06:43:16;;;;;;;4.20;3.05;;;;;;;20.04;43.63;102286.19;7311308;19;131775;-62
2022/01/01 06:45:43;;;;;;;5.63;2.60;;;;;;;20.03;43.67;102281.72;7311149;19;131982;-62
2022/01/01 06:48:10;;;;;;;6.68;2.50;;;;;;;20.03;43.67;102282.56;7310523;19;129410;-62
2022/01/01 06:50:39;;;;;;;5.85;2.90;;;;;;;20.03;43.63;102281.72;7312282;19;129062;-62
2022/01/01 06:53:09;;;;;;;4.78;2.63;;;;;;;20.02;43.46;102277.22;7308085;19;131113;-62
2022/01/01 06:55:36;;;;;;;4.97;2.70;;;;;;;20.02;43.63;102285.56;7312760;19;131475;-62
2022/01/01 06:58:03;;;;;;;4.75;2.70;;;;;;;20.01;43.45;102278.31;7309190;19;129080;-62
2022/01/01 07:00:29;;;;;;;3.42;2.60;;;;;;;20.01;43.44;102279.13;7314376;19;129243;-62
2022/01/01 07:02:56;;;;;;;4.53;2.55;;;;;;;20.01;43.62;102294.97;7310335;19;131917;-62
2022/01/01 07:05:23;;;;;;;3.38;2.58;;;;;;;20.01;43.45;102303.31;7309788;19;130771;-62
2022/01/01 07:07:50;;;;;;;4.20;2.30;;;;;;;20.01;43.80;102293.03;7309560;19;129111;-62
2022/01/01 07:10:17;;;;;;;4.97;2.55;;;;;;;20.02;43.56;102297.50;7311668;19;130416;-62
2022/01/01 07:12:43;;;;;;;4.63;2.47;;;;;;;20.06;43.49;102304.34;7310037;19;131794;-62
2022/01/01 07:15:11;;;;;;;4.63;2.50;;;;;;;20.11;43.99;102300.88;7309441;19;131693;-62
2022/01/01 07:17:37;;;;;;;5.45;2.38;;;;;;;20.15;43.62;102307.72;7310837;19;129110;-62
2022/01/01 07:20:05;;;;;;;8.88;2.75;;;;;;;20.22;43.88;102308.50;7311670;19;129393;-62
2022/01/01 07:22:32;;;;;;;5.75;2.90;;;;;;;20.29;43.66;102317.66;7311739;19;131321;-63
2022/01/01 07:25:03;;;;;;;3.88;2.47;;;;;;;20.35;43.29;102318.69;7307725;19;131216;-62
2022/01/01 07:27:29;;;;;;;3.25;2.22;;;;;;;20.41;43.32;102317.78;7312356;19;130426;-63
2022/01/01 07:29:56;;;;;;;4.20;2.65;;;;;;;20.47;43.31;102316.03;7309220;19;129363;-63
2022/01/01 07:32:24;;;;;;;4.22;2.42;;;;;;;20.52;43.33;102319.00;7310971;19;131294;-62
2022/01/01 07:34:51;;;;;;;4.22;2.53;;;;;;;20.56;42.67;102320.22;7315137;19;131078;-62
2022/01/01 07:37:17;;;;;;;4.55;2.50;;;;;;;20.63;42.77;102313.78;7318734;19;129687;-62
2022/01/01 07:39:44;;;;;;;3.20;1.98;;;;;;;20.72;42.92;102317.97;7317428;19;129403;-62
2022/01/01 07:42:12;;;;;;;3.88;2.17;;;;;;;20.79;42.24;102313.25;7316776;19;132066;-62
2022/01/01 07:44:41;;;;;;;3.95;2.20;;;;;;;20.89;42.07;102316.38;7317963;19;131331;-62
2022/01/01 07:47:07;;;;;;;3.97;2.10;;;;;;;21.02;42.04;102320.13;7315768;19;128871;-62
2022/01/01 07:49:34;;;;;;;4.20;2.00;;;;;;;21.10;41.79;102324.53;7320839;19;131503;-62
2022/01/01 07:52:01;;;;;;;5.40;1.98;;;;;;;21.19;42.08;102321.22;7314313;19;131129;-62
2022/01/01 07:54:28;;;;;;;2.70;2.10;;;;;;;21.28;41.64;102323.72;7321249;19;131325;-62
2022/01/01 07:56:56;;;;;;;3.03;2.08;;;;;;;21.40;41.44;102323.78;7315544;19;132297;-62
2022/01/01 07:59:22;;;;;;;3.85;2.00;;;;;;;21.57;40.95;102324.03;7319956;19;128794;-63
2022/01/01 08:01:49;;;;;;;4.25;2.55;;;;;;;21.78;40.75;102325.50;7314599;19;131567;-62
2022/01/01 08:04:16;;;;;;;4.03;1.88;;;;;;;21.84;40.55;102307.88;7316586;19;131049;-62
2022/01/01 08:06:43;;;;;;;2.83;1.90;;;;;;;21.88;40.30;102314.66;7315583;19;128936;-62
2022/01/01 08:09:10;;;;;;;2.63;1.73;;;;;;;21.75;40.92;102321.25;7317846;19;128930;-63
2022/01/01 08:11:36;;;;;;;5.28;2.33;;;;;;;21.67;40.94;102321.56;7315144;19;131367;-63
2022/01/01 08:14:03;;;;;;;5.03;2.00;;;;;;;21.64;40.82;102331.22;7314900;19;130996;-63
2022/01/01 08:16:30;;;;;;;6.18;2.10;;;;;;;21.62;40.76;102321.41;7317192;19;131823;-63
2022/01/01 08:18:57;;;;;;;7.65;1.90;;;;;;;21.61;40.85;102336.44;7316189;19;129087;-63
2022/01/01 08:21:23;;;;;;;5.32;2.20;;;;;;;21.65;40.89;102326.53;7318549;19;132093;-63
2022/01/01 08:23:50;;;;;;;5.18;2.05;;;;;;;21.62;40.83;102332.56;7315167;19;131922;-61
2022/01/01 08:26:17;;;;;;;3.40;1.83;;;;;;;21.45;41.20;102344.28;7316963;19;128816;-62
2022/01/01 08:28:44;;;;;;;12.27;2.80;;;;;;;21.38;41.31;102337.94;7314816;19;129044;-62
2022/01/01 08:31:10;;;;;;;8.30;1.85;;;;;;;21.33;41.41;102340.56;7317326;19;131175;-62
2022/01/01 08:33:37;;;;;;;7.18;2.50;;;;;;;21.28;41.02;102348.75;7314318;19;131808;-62
2022/01/01 08:36:04;;;;;;;9.73;2.38;;;;;;;21.27;41.56;102347.91;7316829;19;128966;-61
2022/01/01 08:38:32;;;;;;;6.57;2.95;;;;;;;21.26;41.54;102339.78;7314752;19;129035;-62
2022/01/01 08:40:59;;;;;;;4.80;2.30;;;;;;;21.18;41.78;102341.75;7317092;19;131999;-62
2022/01/01 08:43:26;;;;;;;9.02;2.40;;;;;;;21.12;41.36;102353.81;7314349;19;131216;-62
2022/01/01 08:45:53;;;;;;;7.28;2.47;;;;;;;21.07;41.83;102342.53;7312131;19;128877;-62
2022/01/01 08:48:20;;;;;;;6.30;2.58;;;;;;;21.03;41.93;102341.28;7317342;19;131734;-62
2022/01/01 08:50:47;;;;;;;8.00;2.28;;;;;;;20.97;41.86;102328.28;7315644;19;131138;-62
2022/01/01 08:53:15;;;;;;;5.90;2.00;;;;;;;20.90;42.09;102325.56;7316950;19;131263;-62
2022/01/01 08:55:42;;;;;;;8.70;2.53;;;;;;;20.85;42.38;102323.47;7314543;19;128870;-62
2022/01/01 08:58:09;;;;;;;9.25;2.20;;;;;;;20.85;42.10;102323.47;7317480;19;129142;-63
2022/01/01 09:00:52;;;;;;;12.10;2.78;;;;;;;20.85;42.18;102326.25;7312014;19;132175;-62
2022/01/01 09:03:19;;;;;;;6.65;2.63;;;;;;;20.84;42.33;102327.31;7316287;19;131155;-62
2022/01/01 09:05:46;;;;;;;7.15;2.45;;;;;;;20.85;42.64;102339.31;7312178;19;130151;-62
2022/01/01 09:08:38;;;;;;;6.63;2.70;;;;;;;20.84;42.40;102330.09;7314039;19;128819;-62
2022/01/01 09:11:06;;;;;;;6.32;2.60;;;;;;;20.85;42.08;102334.59;7310144;19;132100;-62
2022/01/01 09:13:33;;;;;;;8.25;3.17;;;;;;;20.83;42.37;102331.19;7313446;19;131196;-62
2022/01/01 09:16:00;;;;;;;6.78;2.33;;;;;;;20.79;42.12;102332.72;7315868;19;128978;-62
2022/01/01 09:18:27;;;;;;;10.18;2.53;;;;;;;20.76;42.41;102330.41;7313589;19;129060;-62
2022/01/01 09:20:54;;;;;;;8.90;2.67;;;;;;;20.78;42.48;102328.25;7317580;19;131778;-62
2022/01/01 09:23:25;;;;;;;8.73;2.42;;;;;;;20.84;42.23;102324.53;7313337;19;131030;-61
2022/01/01 09:25:52;;;;;;;7.85;2.78;;;;;;;20.90;42.21;102320.88;7315363;19;128948;-62
2022/01/01 09:28:19;;;;;;;8.80;2.42;;;;;;;20.97;42.22;102309.69;7312903;19;129081;-62
2022/01/01 09:30:45;;;;;;;6.65;2.33;;;;;;;21.04;42.01;102315.19;7317021;19;134328;-62
2022/01/01 09:33:12;;;;;;;9.45;2.47;;;;;;;21.09;42.16;102311.69;7314419;19;131270;-62
2022/01/01 09:35:40;;;;;;;8.38;2.70;;;;;;;21.14;42.34;102312.72;7317082;19;129098;-62
2022/01/01 09:38:07;;;;;;;10.60;2.40;;;;;;;21.18;42.09;102310.31;7312774;19;129343;-62
2022/01/01 09:40:33;;;;;;;7.95;2.30;;;;;;;21.19;42.04;102304.50;7313678;19;131287;-62
2022/01/01 09:43:02;;;;;;;7.93;2.40;;;;;;;21.21;42.21;102299.56;7312995;19;131071;-62
2022/01/01 09:45:29;;;;;;;6.60;2.40;;;;;;;21.21;42.16;102296.78;7314407;19;128858;-63
2022/01/01 09:47:58;;;;;;;7.15;2.22;;;;;;;21.29;42.06;102305.94;7313750;19;130245;-62
2022/01/01 09:50:25;;;;;;;7.78;2.33;;;;;;;21.34;41.75;102304.16;7308916;19;131721;-62
2022/01/01 09:52:52;;;;;;;12.13;2.72;;;;;;;21.42;42.21;102305.75;7314003;19;131604;-62
2022/01/01 09:55:18;;;;;;;5.63;2.22;;;;;;;21.46;41.82;102298.66;7310557;19;129040;-62
2022/01/01 09:57:47;;;;;;;8.32;2.10;;;;;;;21.51;41.70;102292.41;7313880;19;128947;-63
2022/01/01 10:00:15;;;;;;;5.55;2.08;;;;;;;21.55;41.62;102290.00;7310696;19;131019;-63
2022/01/01 10:02:41;;;;;;;9.27;2.40;;;;;;;21.60;41.59;102287.38;7316075;19;131846;-63
2022/01/01 10:05:08;;;;;;;11.88;2.95;;;;;;;21.63;41.57;102286.91;7312907;19;129075;-62
2022/01/01 10:07:36;;;;;;;12.57;2.88;;;;;;;21.67;41.23;102288.13;7315499;19;128963;-63
2022/01/01 10:10:20;;;;;;;18.50;4.03;;;;;;;21.71;41.10;102283.81;7311026;19;132455;-62
2022/01/01 10:12:48;;;;;;;19.50;3.95;;;;;;;21.72;41.32;102277.16;7311245;19;130913;-62
2022/01/01 10:15:17;;;;;;;19.35;3.50;;;;;;;21.75;41.03;102287.84;7311112;19;129117;-62
2022/01/01 10:17:45;;;;;;;17.20;4.10;;;;;;;21.76;41.18;102289.53;7306646;19;131146;-63
2022/01/01 10:20:12;;;;;;;16.35;3.75;;;;;;;21.74;40.56;102288.91;7312206;19;131290;-63
2022/01/01 10:22:40;;;;;;;16.92;3.78;;;;;;;21.73;40.58;102284.44;7309314;19;131247;-63
2022/01/01 10:27:59;;;;;;;19.73;3.17;;;;;;;21.81;40.63;102275.72;7307898;19;129584;-63
2022/01/01 10:30:29;;;;;;;10.65;2.67;;;;;;;21.83;40.73;102273.56;7310421;19;132275;-62
2022/01/01 10:33:14;;;;;;;12.90;2.72;;;;;;;21.80;40.71;102265.66;7313424;19;131327;-62
2022/01/01 10:35:46;;;;;;;10.73;2.75;;;;;;;21.76;40.09;102267.25;7311662;19;128895;-62
2022/01/01 10:38:26;;;;;;;13.63;2.88;;;;;;;21.74;40.26;102262.97;7312851;19;131884;-63
2022/01/01 10:41:10;;;;;;;27.90;3.80;;;;;;;21.71;40.88;102255.94;7306568;19;131143;-63
2022/01/01 10:43:39;;;;;;;18.92;3.65;;;;;;;21.70;40.93;102262.59;7311964;19;131092;-63
2022/01/01 10:46:09;;;;;;;14.65;3.45;;;;;;;21.65;40.93;102259.69;7308161;19;131975;-63
2022/01/01 10:51:09;;;;;;;14.98;3.92;;;;;;;21.58;40.99;102253.34;7307018;19;131132;-62
2022/01/01 10:53:37;;;;;;;10.10;3.40;;;;;;;21.51;39.92;102248.72;7309610;19;131600;-62
2022/01/01 10:56:15;;;;;;;18.60;3.03;;;;;;;21.46;40.02;102244.91;7308895;19;129081;-62
2022/01/01 10:58:43;;;;;;;7.43;2.70;;;;;;;21.42;40.10;102236.16;7310672;19;131564;-63
2022/01/01 11:01:10;;;;;;;12.43;3.72;;;;;;;21.45;39.81;102237.63;7312993;19;131959;-63
2022/01/01 11:03:43;;;;;;;7.70;2.03;;;;;;;21.51;39.24;102233.94;7308677;19;131860;-64
2022/01/01 11:06:12;;;;;;;11.95;2.60;;;;;;;21.59;39.18;102221.63;7313609;19;129452;-63
2022/01/01 11:08:43;;;;;;;5.57;2.30;;;;;;;21.62;38.85;102221.16;7305790;19;129252;-62
2022/01/01 11:11:13;;;;;;;3.67;2.03;;;;;;;21.56;37.97;102217.38;7310687;19;132001;-63
2022/01/01 11:13:41;;;;;;;6.15;2.10;;;;;;;21.50;38.13;102216.41;7306064;19;130991;-64
2022/01/01 11:16:09;;;;;;;7.68;2.40;;;;;;;21.44;38.57;102217.28;7310719;19;129032;-64
2022/01/01 11:18:39;;;;;;;7.53;2.33;;;;;;;21.43;39.46;102210.00;7308302;19;133120;-63
2022/01/01 11:21:06;;;;;;;21.92;3.90;;;;;;;21.41;39.95;102209.44;7309769;19;132175;-63
2022/01/01 11:23:34;;;;;;;7.47;2.15;;;;;;;21.37;39.64;102219.31;7310295;19;133427;-64
2022/01/01 11:26:02;;;;;;;4.72;2.20;;;;;;;21.33;39.21;102212.50;7307093;19;131702;-63
2022/01/01 11:28:28;;;;;;;9.38;2.45;;;;;;;21.25;38.50;102210.88;7309533;19;129218;-62